createdAt,value
2022-10-17T00:01:00.344Z,8.40
2022-10-17T00:03:30.739Z,8.40
2022-10-17T00:06:05.402Z,6.90
2022-10-17T00:08:36.675Z,7.60
2022-10-17T00:13:37.408Z,14.40
2022-10-17T00:16:09.236Z,8.50
2022-10-17T00:18:39.971Z,6.70
2022-10-17T00:21:17.904Z,9.00
2022-10-17T00:23:48.700Z,8.40
2022-10-17T00:26:19.569Z,7.60
2022-10-17T00:28:51.715Z,7.90
2022-10-17T00:31:24.483Z,8.30
2022-10-17T00:33:55.119Z,8.90
2022-10-17T00:36:26.981Z,7.60
2022-10-17T00:38:59.531Z,10.90
2022-10-17T00:41:33.187Z,9.50
2022-10-17T00:44:05.861Z,8.80
2022-10-17T00:46:40.528Z,7.10
2022-10-17T00:49:13.862Z,8.90
2022-10-17T00:51:47.889Z,8.70
2022-10-17T00:54:22.543Z,7.90
2022-10-17T00:56:54.313Z,7.90
2022-10-17T00:59:26.228Z,8.80
2022-10-17T01:02:04.684Z,8.10
2022-10-17T01:04:36.585Z,5.40
2022-10-17T01:07:07.041Z,7.50
2022-10-17T01:09:38.175Z,8.70
2022-10-17T01:12:18.953Z,7.40
2022-10-17T01:15:00.967Z,7.20
2022-10-17T01:17:41.165Z,7.20
2022-10-17T01:27:49.998Z,11.80
2022-10-17T01:30:57.546Z,10.00
2022-10-17T01:33:48.310Z,8.30
2022-10-17T01:36:31.870Z,11.30
2022-10-17T01:39:10.699Z,7.40
2022-10-17T01:41:47.997Z,7.30
2022-10-17T01:44:24.564Z,6.70
2022-10-17T01:47:00.386Z,9.80
2022-10-17T01:49:33.534Z,6.70
2022-10-17T01:52:09.257Z,12.00
2022-10-17T01:54:46.714Z,12.70
2022-10-17T01:57:23.145Z,7.50
2022-10-17T01:59:56.596Z,8.30
2022-10-17T02:02:28.092Z,7.30
2022-10-17T02:10:00.414Z,9.00
2022-10-17T02:12:46.492Z,8.10
2022-10-17T02:15:37.204Z,8.90
2022-10-17T02:18:22.179Z,7.40
2022-10-17T02:21:19.735Z,10.20
2022-10-17T02:23:56.815Z,12.00
2022-10-17T02:26:32.369Z,7.70
2022-10-17T02:29:11.117Z,8.00
2022-10-17T02:32:00.116Z,9.30
2022-10-17T02:34:36.048Z,8.20
2022-10-17T02:37:09.521Z,12.70
2022-10-17T02:39:41.401Z,8.10
2022-10-17T02:42:14.305Z,7.70
2022-10-17T02:44:47.395Z,8.20
2022-10-17T02:47:24.134Z,8.50
2022-10-17T02:49:56.782Z,7.80
2022-10-17T02:52:34.205Z,7.40
2022-10-17T02:55:10.736Z,8.80
2022-10-17T02:57:46.335Z,8.90
2022-10-17T03:00:20.930Z,9.20
2022-10-17T03:02:53.587Z,7.30
2022-10-17T03:05:26.420Z,7.50
2022-10-17T03:07:57.862Z,11.00
2022-10-17T03:10:28.429Z,9.70
2022-10-17T03:12:58.981Z,10.70
2022-10-17T03:15:29.659Z,8.00
2022-10-17T03:18:00.234Z,7.70
2022-10-17T03:20:30.827Z,8.40
2022-10-17T03:23:07.138Z,6.00
2022-10-17T03:25:37.532Z,7.50
2022-10-17T03:28:08.817Z,7.90
2022-10-17T03:30:40.964Z,9.70
2022-10-17T03:33:12.425Z,9.40
2022-10-17T03:35:43.052Z,8.50
2022-10-17T03:38:13.917Z,8.30
2022-10-17T03:40:45.368Z,9.90
2022-10-17T03:43:16.100Z,7.50
2022-10-17T03:45:46.657Z,8.40
2022-10-17T03:48:17.216Z,10.30
2022-10-17T03:50:47.853Z,8.50
2022-10-17T03:53:18.429Z,9.70
2022-10-17T03:55:49.108Z,6.90
2022-10-17T03:58:19.800Z,13.60
2022-10-17T04:00:50.947Z,10.30
2022-10-17T04:03:21.813Z,9.90
2022-10-17T04:05:52.374Z,8.50
2022-10-17T04:08:23.015Z,9.00
2022-10-17T04:11:09.988Z,9.00
2022-10-17T04:13:41.680Z,7.80
2022-10-17T04:16:16.561Z,8.20
2022-10-17T04:19:16.589Z,8.90
2022-10-17T04:21:49.594Z,8.10
2022-10-17T04:27:26.417Z,8.20
2022-10-17T04:29:58.372Z,8.00
2022-10-17T04:32:29.335Z,9.70
2022-10-17T04:35:08.556Z,7.70
2022-10-17T04:37:39.161Z,10.30
2022-10-17T04:40:15.235Z,12.70
2022-10-17T04:42:45.870Z,8.20
2022-10-17T04:45:20.013Z,10.80
2022-10-17T04:47:51.182Z,8.80
2022-10-17T04:50:21.964Z,9.70
2022-10-17T04:53:08.723Z,10.40
2022-10-17T04:55:50.351Z,10.70
2022-10-17T04:58:21.756Z,8.90
2022-10-17T05:00:53.253Z,8.40
2022-10-17T05:03:26.919Z,7.80
2022-10-17T05:05:57.545Z,11.20
2022-10-17T05:08:29.207Z,7.40
2022-10-17T05:11:00.967Z,9.20
2022-10-17T05:13:32.440Z,8.70
2022-10-17T05:16:04.038Z,10.60
2022-10-17T05:18:35.571Z,7.60
2022-10-17T05:21:07.859Z,9.10
2022-10-17T05:23:38.809Z,8.80
2022-10-17T05:26:11.278Z,10.80
2022-10-17T05:28:41.774Z,11.50
2022-10-17T05:31:18.350Z,8.90
2022-10-17T05:33:49.559Z,8.90
2022-10-17T05:36:22.699Z,9.10
2022-10-17T05:38:54.558Z,8.30
2022-10-17T05:41:59.531Z,7.40
2022-10-17T05:44:30.871Z,9.10
2022-10-17T05:47:03.134Z,9.70
2022-10-17T05:49:44.973Z,12.30
2022-10-17T05:52:21.143Z,10.10
2022-10-17T05:55:00.963Z,9.90
2022-10-17T05:57:31.876Z,8.60
2022-10-17T06:00:02.690Z,10.90
2022-10-17T06:02:46.013Z,11.50
2022-10-17T06:05:18.452Z,10.00
2022-10-17T06:07:58.249Z,9.40
2022-10-17T06:10:32.732Z,10.60
2022-10-17T06:13:03.820Z,10.90
2022-10-17T06:15:34.288Z,10.10
2022-10-17T06:18:09.057Z,9.10
2022-10-17T06:20:43.834Z,7.00
2022-10-17T06:23:17.566Z,8.70
2022-10-17T06:25:58.731Z,9.60
2022-10-17T06:28:29.262Z,12.60
2022-10-17T06:31:01.103Z,9.30
2022-10-17T06:33:31.913Z,8.60
2022-10-17T06:36:02.779Z,10.70
2022-10-17T06:38:35.196Z,9.30
2022-10-17T06:41:16.185Z,8.30
2022-10-17T06:43:48.226Z,7.40
2022-10-17T06:46:49.285Z,8.60
2022-10-17T06:49:21.594Z,8.50
2022-10-17T06:52:01.062Z,9.10
2022-10-17T06:54:43.962Z,10.50
2022-10-17T06:57:38.394Z,11.90
2022-10-17T07:00:28.852Z,9.90
2022-10-17T07:03:01.057Z,7.50
2022-10-17T07:05:39.356Z,9.60
2022-10-17T07:08:31.208Z,10.40
2022-10-17T07:11:23.828Z,7.60
2022-10-17T07:14:13.797Z,9.30
2022-10-17T07:16:48.228Z,9.70
2022-10-17T07:19:57.973Z,13.80
2022-10-17T07:22:34.134Z,8.40
2022-10-17T07:25:08.917Z,12.00
2022-10-17T07:28:04.273Z,10.70
2022-10-17T07:31:14.132Z,10.90
2022-10-17T07:33:57.833Z,9.20
2022-10-17T07:36:29.135Z,15.40
2022-10-17T07:39:02.742Z,13.10
2022-10-17T07:41:43.924Z,16.40
2022-10-17T07:44:36.680Z,9.90
2022-10-17T07:47:23.981Z,12.60
2022-10-17T07:50:37.575Z,14.30
2022-10-17T07:53:30.002Z,11.90
2022-10-17T07:56:07.061Z,11.70
2022-10-17T07:58:46.123Z,10.50
2022-10-17T08:01:46.418Z,9.80
2022-10-17T08:04:25.281Z,10.70
2022-10-17T08:07:18.566Z,11.00
2022-10-17T08:09:53.477Z,8.80
2022-10-17T08:12:52.166Z,9.60
2022-10-17T08:15:54.919Z,9.20
2022-10-17T08:21:54.370Z,9.90
2022-10-17T08:24:37.721Z,11.90
2022-10-17T08:27:54.984Z,10.90
2022-10-17T08:31:48.312Z,7.90
2022-10-17T08:34:27.250Z,9.10
2022-10-17T08:37:01.390Z,12.20
2022-10-17T08:39:33.590Z,9.20
2022-10-17T08:42:27.990Z,10.30
2022-10-17T08:45:25.705Z,13.00
2022-10-17T08:48:02.300Z,9.00
2022-10-17T08:50:43.659Z,11.00
2022-10-17T08:55:57.574Z,9.90
2022-10-17T08:58:36.774Z,8.90
2022-10-17T09:01:51.654Z,7.80
2022-10-17T09:04:47.628Z,9.40
2022-10-17T09:07:28.524Z,9.40
2022-10-17T09:10:26.988Z,9.70
2022-10-17T09:13:16.221Z,9.80
2022-10-17T09:16:07.777Z,8.80
2022-10-17T09:18:42.295Z,7.50
2022-10-17T09:21:22.329Z,8.70
2022-10-17T09:24:09.206Z,8.10
2022-10-17T09:26:42.410Z,8.00
2022-10-17T09:29:20.954Z,6.50
2022-10-17T09:32:13.991Z,10.20
2022-10-17T09:34:45.204Z,7.30
2022-10-17T09:39:47.528Z,6.90
2022-10-17T09:42:23.179Z,6.50
2022-10-17T09:44:58.606Z,8.20
2022-10-17T09:47:35.954Z,11.20
2022-10-17T09:50:18.823Z,6.30
2022-10-17T09:52:50.897Z,10.20
2022-10-17T09:55:28.530Z,6.60
2022-10-17T09:58:01.640Z,7.30
2022-10-17T10:04:21.311Z,6.90
2022-10-17T10:07:09.674Z,7.80
2022-10-17T10:09:41.126Z,7.40
2022-10-17T10:12:24.042Z,8.80
2022-10-17T10:15:37.961Z,8.70
2022-10-17T10:18:31.917Z,7.80
2022-10-17T10:21:13.031Z,6.60
2022-10-17T10:23:45.350Z,6.70
2022-10-17T10:26:26.779Z,6.70
2022-10-17T10:29:02.107Z,7.20
2022-10-17T10:31:52.186Z,6.80
2022-10-17T10:34:34.583Z,6.70
2022-10-17T10:37:17.378Z,8.30
2022-10-17T10:39:54.667Z,8.40
2022-10-17T10:42:30.185Z,5.50
2022-10-17T10:45:35.898Z,6.70
2022-10-17T10:48:25.387Z,9.30
2022-10-17T10:51:01.386Z,7.70
2022-10-17T10:53:39.818Z,6.50
2022-10-17T10:56:20.512Z,9.30
2022-10-17T10:59:00.395Z,8.20
2022-10-17T11:01:45.070Z,7.40
2022-10-17T11:04:34.383Z,8.00
2022-10-17T11:07:16.045Z,6.30
2022-10-17T11:09:59.763Z,8.60
2022-10-17T11:12:51.910Z,7.40
2022-10-17T11:16:02.425Z,9.50
2022-10-17T11:18:40.912Z,6.10
2022-10-17T11:21:17.502Z,9.10
2022-10-17T11:23:55.319Z,8.70
2022-10-17T11:26:31.801Z,8.40
2022-10-17T11:29:06.746Z,8.60
2022-10-17T11:31:41.491Z,6.60
2022-10-17T11:34:20.166Z,6.50
2022-10-17T11:37:05.131Z,8.60
2022-10-17T11:39:48.589Z,8.00
2022-10-17T11:42:24.799Z,7.80
2022-10-17T11:45:01.464Z,8.70
2022-10-17T11:47:43.248Z,7.90
2022-10-17T11:53:26.401Z,6.60
2022-10-17T11:55:59.520Z,10.40
2022-10-17T11:58:51.707Z,9.10
2022-10-17T12:01:33.935Z,7.70
2022-10-17T12:04:31.367Z,7.10
2022-10-17T12:07:15.851Z,8.30
2022-10-17T12:09:55.774Z,9.40
2022-10-17T12:12:40.975Z,6.80
2022-10-17T12:15:36.836Z,11.80
2022-10-17T12:18:30.164Z,7.70
2022-10-17T12:21:02.081Z,7.50
2022-10-17T12:23:36.410Z,7.80
2022-10-17T12:26:28.453Z,6.60
2022-10-17T12:29:00.414Z,8.10
2022-10-17T12:31:34.058Z,9.60
2022-10-17T12:34:06.520Z,7.30
2022-10-17T12:36:45.941Z,8.00
2022-10-17T12:39:56.016Z,8.50
2022-10-17T12:42:50.977Z,8.90
2022-10-17T12:45:58.291Z,5.60
2022-10-17T12:49:04.278Z,10.30
2022-10-17T12:52:15.819Z,9.70
2022-10-17T12:55:00.339Z,7.00
2022-10-17T12:57:48.426Z,8.20
2022-10-17T13:00:23.943Z,8.20
2022-10-17T13:02:57.342Z,9.80
2022-10-17T13:05:33.914Z,10.70
2022-10-17T13:08:08.591Z,8.50
2022-10-17T13:10:43.203Z,8.60
2022-10-17T13:13:21.099Z,6.70
2022-10-17T13:15:53.535Z,10.50
2022-10-17T13:18:26.931Z,9.30
2022-10-17T13:21:02.906Z,9.50
2022-10-17T13:23:35.987Z,7.70
2022-10-17T13:26:16.581Z,7.10
2022-10-17T13:31:35.257Z,8.20
2022-10-17T13:34:07.557Z,10.30
2022-10-17T13:36:38.227Z,10.50
2022-10-17T13:39:17.188Z,7.70
2022-10-17T13:41:50.356Z,10.30
2022-10-17T13:46:51.991Z,7.70
2022-10-17T13:49:30.095Z,9.50
2022-10-17T13:52:02.596Z,8.00
2022-10-17T13:54:40.092Z,8.90
2022-10-17T13:57:21.421Z,10.50
2022-10-17T13:59:55.436Z,9.80
2022-10-17T14:02:28.188Z,11.20
2022-10-17T14:05:20.136Z,8.50
2022-10-17T14:08:13.352Z,9.50
2022-10-17T14:10:46.529Z,9.60
2022-10-17T14:13:24.454Z,7.10
2022-10-17T14:15:56.190Z,10.90
2022-10-17T14:18:38.332Z,10.90
2022-10-17T14:24:27.383Z,8.80
2022-10-17T14:27:00.114Z,10.60
2022-10-17T14:29:33.610Z,10.70
2022-10-17T14:32:08.558Z,10.10
2022-10-17T14:34:41.616Z,9.30
2022-10-17T14:37:19.625Z,9.10
2022-10-17T14:39:55.136Z,10.30
2022-10-17T14:42:26.259Z,9.10
2022-10-17T14:45:04.129Z,11.30
2022-10-17T14:47:50.519Z,10.90
2022-10-17T14:50:28.354Z,12.60
2022-10-17T14:53:07.457Z,12.90
2022-10-17T14:55:39.843Z,13.40
2022-10-17T14:58:25.315Z,11.30
2022-10-17T15:00:55.802Z,10.90
2022-10-17T15:03:26.657Z,11.00
2022-10-17T15:08:26.830Z,11.90
2022-10-17T15:10:57.403Z,10.40
2022-10-17T15:13:30.273Z,12.00
2022-10-17T15:16:01.893Z,10.90
2022-10-17T15:18:32.331Z,12.90
2022-10-17T15:21:05.417Z,12.30
2022-10-17T15:23:48.461Z,11.90
2022-10-17T15:26:21.777Z,12.70
2022-10-17T15:28:53.633Z,15.10
2022-10-17T15:31:26.287Z,74.10
2022-10-17T15:33:56.986Z,45.30
2022-10-17T15:36:29.955Z,60.70
2022-10-17T15:39:02.622Z,28.80
2022-10-17T15:41:34.349Z,18.70
2022-10-17T15:44:04.903Z,17.10
2022-10-17T15:46:37.456Z,13.90
2022-10-17T15:49:11.174Z,17.90
2022-10-17T15:51:43.405Z,18.50
2022-10-17T15:54:14.184Z,19.50
2022-10-17T15:56:48.138Z,15.00
2022-10-17T15:59:23.488Z,21.60
2022-10-17T16:01:54.263Z,19.30
2022-10-17T16:04:27.250Z,12.10
2022-10-17T16:06:57.863Z,15.00
2022-10-17T16:09:30.126Z,13.10
2022-10-17T16:12:01.407Z,15.40
2022-10-17T16:14:32.591Z,15.70
2022-10-17T16:19:32.461Z,15.00
2022-10-17T16:22:06.155Z,17.60
2022-10-17T16:24:36.751Z,19.70
2022-10-17T16:27:12.440Z,15.30
2022-10-17T16:29:43.076Z,15.70
2022-10-17T16:32:13.747Z,19.20
2022-10-17T16:34:44.319Z,21.20
2022-10-17T16:37:14.878Z,12.40
2022-10-17T16:39:49.183Z,15.50
2022-10-17T16:42:20.019Z,17.70
2022-10-17T16:44:51.885Z,18.00
2022-10-17T16:47:22.591Z,21.70
2022-10-17T16:49:53.423Z,17.20
2022-10-17T16:52:24.255Z,17.70
2022-10-17T16:54:54.736Z,22.40
2022-10-17T16:57:25.332Z,19.20
2022-10-17T16:59:56.490Z,18.30
2022-10-17T17:02:27.188Z,18.00
2022-10-17T17:05:04.014Z,17.90
2022-10-17T17:07:34.506Z,18.80
2022-10-17T17:10:05.236Z,16.90
2022-10-17T17:12:37.516Z,16.10
2022-10-17T17:15:08.724Z,14.80
2022-10-17T17:20:27.074Z,15.60
2022-10-17T17:22:57.619Z,15.40
2022-10-17T17:25:28.089Z,17.60
2022-10-17T17:27:58.678Z,19.90
2022-10-17T17:30:29.891Z,16.30
2022-10-17T17:35:31.859Z,14.10
2022-10-17T17:38:04.867Z,17.60
2022-10-17T17:40:35.468Z,15.70
2022-10-17T17:43:05.965Z,15.10
2022-10-17T17:45:58.907Z,14.80
2022-10-17T17:48:29.590Z,16.00
2022-10-17T17:51:03.828Z,16.80
2022-10-17T17:53:34.756Z,18.10
2022-10-17T17:56:07.203Z,16.50
2022-10-17T17:58:38.522Z,17.00
2022-10-17T18:03:46.111Z,15.90
2022-10-17T18:06:17.351Z,17.40
2022-10-17T18:11:21.147Z,13.80
2022-10-17T18:13:56.961Z,15.20
2022-10-17T18:16:28.279Z,18.30
2022-10-17T18:21:33.976Z,13.30
2022-10-17T18:24:05.737Z,12.80
2022-10-17T18:26:36.712Z,14.50
2022-10-17T18:29:07.600Z,22.30
2022-10-17T18:31:38.235Z,13.40
2022-10-17T18:34:09.077Z,14.00
2022-10-17T18:36:39.917Z,14.90
2022-10-17T18:39:10.911Z,15.40
2022-10-17T18:41:41.649Z,11.60
2022-10-17T18:44:13.016Z,15.90
2022-10-17T18:49:19.419Z,13.70
2022-10-17T18:51:56.963Z,12.20
2022-10-17T18:54:27.485Z,16.00
2022-10-17T18:56:58.317Z,14.20
2022-10-17T18:59:29.517Z,14.70
2022-10-17T19:04:38.906Z,14.30
2022-10-17T19:07:09.777Z,15.00
2022-10-17T19:09:40.475Z,16.60
2022-10-17T19:12:11.885Z,15.70
2022-10-17T19:14:42.733Z,16.50
2022-10-17T19:17:13.403Z,15.30
2022-10-17T19:19:44.385Z,16.30
2022-10-17T19:22:15.405Z,16.20
2022-10-17T19:24:48.924Z,14.10
2022-10-17T19:27:20.863Z,12.80
2022-10-17T19:29:51.604Z,14.20
2022-10-17T19:32:23.076Z,15.20
2022-10-17T19:34:54.101Z,16.00
2022-10-17T19:37:25.583Z,11.60
2022-10-17T19:39:57.835Z,15.00
2022-10-17T19:42:30.973Z,13.90
2022-10-17T19:45:06.042Z,15.40
2022-10-17T19:47:39.795Z,13.40
2022-10-17T19:50:11.176Z,14.30
2022-10-17T19:55:11.329Z,13.50
2022-10-17T19:57:41.867Z,12.80
2022-10-17T20:00:14.411Z,14.40
2022-10-17T20:02:47.152Z,14.60
2022-10-17T20:05:19.068Z,16.20
2022-10-17T20:07:50.511Z,13.90
2022-10-17T20:10:21.265Z,10.80
2022-10-17T20:12:51.931Z,16.70
2022-10-17T20:15:22.467Z,17.40
2022-10-17T20:17:53.164Z,15.70
2022-10-17T20:20:23.734Z,15.90
2022-10-17T20:22:54.554Z,14.10
2022-10-17T20:25:25.504Z,15.00
2022-10-17T20:27:55.998Z,17.90
2022-10-17T20:30:27.573Z,15.20
2022-10-17T20:32:58.112Z,14.00
2022-10-17T20:35:28.689Z,12.50
2022-10-17T20:37:59.861Z,16.80
2022-10-17T20:43:08.326Z,13.90
2022-10-17T20:45:50.984Z,12.50
2022-10-17T20:48:22.734Z,18.30
2022-10-17T20:50:54.023Z,15.80
2022-10-17T20:56:13.508Z,13.20
2022-10-17T20:58:43.963Z,14.90
2022-10-17T21:01:14.545Z,13.30
2022-10-17T21:03:46.683Z,15.30
2022-10-17T21:06:16.218Z,14.60
2022-10-17T21:08:47.693Z,16.30
2022-10-17T21:11:19.648Z,12.00
2022-10-17T21:13:55.530Z,15.40
2022-10-17T21:16:26.880Z,17.60
2022-10-17T21:21:29.662Z,17.50
2022-10-17T21:24:03.125Z,11.20
2022-10-17T21:26:37.473Z,17.90
2022-10-17T21:29:09.197Z,13.60
2022-10-17T21:31:41.646Z,15.00
2022-10-17T21:34:15.457Z,14.60
2022-10-17T21:36:46.647Z,16.10
2022-10-17T21:39:19.257Z,15.80
2022-10-17T21:41:49.988Z,17.20
2022-10-17T21:44:22.972Z,11.60
2022-10-17T21:46:54.635Z,17.40
2022-10-17T21:49:26.527Z,14.00
2022-10-17T21:51:57.246Z,14.50
2022-10-17T21:54:27.674Z,19.50
2022-10-17T21:56:58.037Z,14.20
2022-10-17T21:59:28.782Z,18.20
2022-10-17T22:01:59.331Z,14.10
2022-10-17T22:04:29.879Z,14.30
2022-10-17T22:07:00.367Z,17.60
2022-10-17T22:09:30.895Z,14.60
2022-10-17T22:12:01.385Z,15.90
2022-10-17T22:14:31.857Z,12.00
2022-10-17T22:17:02.529Z,12.40
2022-10-17T22:19:33.175Z,12.90
2022-10-17T22:22:03.483Z,13.80
2022-10-17T22:24:34.026Z,13.10
2022-10-17T22:27:14.272Z,14.10
2022-10-17T22:29:44.639Z,13.20
2022-10-17T22:32:19.969Z,21.50
2022-10-17T22:34:53.327Z,13.00
2022-10-17T22:37:24.218Z,16.20
2022-10-17T22:39:54.719Z,19.50
2022-10-17T22:42:25.290Z,11.60
2022-10-17T22:44:55.659Z,14.50
2022-10-17T22:47:26.073Z,12.50
2022-10-17T22:49:56.536Z,16.90
2022-10-17T22:52:27.217Z,14.50
2022-10-17T22:54:57.745Z,13.30
2022-10-17T22:57:28.318Z,16.70
2022-10-17T22:59:58.821Z,14.90
2022-10-17T23:02:29.755Z,14.60
2022-10-17T23:05:01.016Z,14.00
2022-10-17T23:07:31.788Z,15.50
2022-10-17T23:10:02.558Z,17.60
2022-10-17T23:12:33.521Z,11.90
2022-10-17T23:15:04.242Z,14.80
2022-10-17T23:17:34.652Z,13.60
2022-10-17T23:20:05.567Z,11.80
2022-10-17T23:22:35.983Z,11.50
2022-10-17T23:25:07.331Z,16.60
2022-10-17T23:27:37.778Z,12.60
2022-10-17T23:30:11.720Z,14.40
2022-10-17T23:32:42.443Z,15.50
2022-10-17T23:35:13.417Z,13.60
2022-10-17T23:37:43.840Z,18.00
2022-10-17T23:40:15.576Z,15.90
2022-10-17T23:42:46.031Z,12.60
2022-10-17T23:45:16.801Z,11.20
2022-10-17T23:47:47.193Z,15.50
2022-10-17T23:50:17.905Z,13.60
2022-10-17T23:52:48.434Z,13.40
2022-10-17T23:55:19.096Z,13.10
2022-10-17T23:57:49.761Z,13.30
